• Join FlightAware (Why Join?)
  • Login
  • US Flag 
10:58AM EDT


 

Airport Tracker/Info


-or-


 

Live Flight TrackerFlight Track Log ✈ AWE1940 ✈ 24-Jun-2013 ✈ KIAH - KCLT

Flight Track Log - Related Links

Times and Time Zones

All times are in EDT time to prevent confusion due to time zone crossing. See the AWE1940 flight status page for this flight to view local times or setup timezone preferences in your user account.

Time Position Orientation Groundspeed Altitude Reporting Facility
EDT Latitude Longitude Course Direction KTS MPH feet Rate Location/Type
06:37PM 29.9783 -95.2958 41° Northeast 188 216 900  Level Houston Center
06:38PM 30.0031 -95.2686 44° Northeast 240 276 1,700 2,160 Climbing Houston Center
06:39PM 30.0850 -95.2442 14° North 269 310 4,700 3,000 Climbing Houston Center
06:40PM 30.2554 -95.1075 30° Northeast  Level FlightAware Approximate
06:40PM 30.1622 -95.2178 16° North 293 337 8,100  Level Houston Center
06:41PM 30.3508 -95.0394 35° Northeast  Level FlightAware Approximate
06:41PM 30.2406 -95.1633 31° Northeast 302 348 10,800  Level Houston Center
06:42PM 30.4396 -94.9604 41° Northeast  Level FlightAware Approximate
06:42PM 30.3192 -95.0925 38° Northeast 339 390 12,800  Level Houston Center
06:43PM 30.3989 -95.0244 36° Northeast 370 426 15,100 2,220 Climbing Houston Center
06:44PM 30.4878 -94.9494 36° Northeast 379 436 17,500 1,980 Climbing Houston Center
06:45PM 30.5744 -94.8739 37° Northeast 388 447 19,300 1,920 Climbing Houston Center
06:46PM 30.6678 -94.8036 33° Northeast 400 460 21,500 2,040 Climbing Houston Center
06:47PM 30.7803 -94.7158 34° Northeast 408 470 23,600 1,800 Climbing Houston Center
06:48PM 30.8761 -94.6425 33° Northeast 415 478 25,300 1,320 Climbing Houston Center
06:49PM 30.9731 -94.5669 34° Northeast 426 490 26,400 1,080 Climbing Houston Center
06:50PM 31.0725 -94.4894 34° Northeast 434 499 27,600 1,200 Climbing Houston Center
06:51PM 31.1750 -94.4111 33° Northeast 443 510 28,900 1,440 Climbing Houston Center
06:52PM 31.2997 -94.3136 34° Northeast 453 521 30,600 960 Climbing Houston Center
06:53PM 31.4017 -94.2342 34° Northeast 446 513 31,000 180 Climbing Houston Center
06:54PM 31.5039 -94.1539 34° Northeast 443 510 31,000  Level Houston Center
06:55PM 31.6069 -94.0744 33° Northeast 443 510 31,000  Level Houston Center
06:56PM 31.7078 -93.9944 34° Northeast 440 506 31,000  Level Houston Center
06:57PM 31.8286 -93.8981 34° Northeast 443 510 31,000  Level Houston Center
06:58PM 31.9319 -93.8161 34° Northeast 445 512 31,000  Level Houston Center
07:00PM 32.0344 -93.7358 34° Northeast 445 512 31,000  Level Houston Center
07:01PM 32.1386 -93.6514 34° Northeast 447 514 31,000  Level Houston Center
07:01PM 32.2136 -93.5856 37° Northeast 439 505 31,000  Level Fort Worth Center
07:02PM 32.3156 -93.5050 34° Northeast 439 505 31,000  Level Fort Worth Center
07:03PM 32.4194 -93.4217 34° Northeast 439 505 31,000  Level Fort Worth Center
07:04PM 32.5211 -93.3408 34° Northeast 439 505 31,000  Level Fort Worth Center
07:05PM 32.6247 -93.2547 35° Northeast 439 505 31,000  Level Fort Worth Center
07:06PM 32.7306 -93.1708 34° Northeast 444 511 31,000  Level Fort Worth Center
07:07PM 32.8319 -93.0869 35° Northeast 449 517 31,000  Level Fort Worth Center
07:08PM 32.9356 -93.0053 33° Northeast 449 517 31,000  Level Fort Worth Center
07:09PM 33.0350 -92.9186 36° Northeast 449 517 31,000  Level Fort Worth Center
07:10PM 33.1075 -92.7958 55° Northeast 438 504 31,000  Level Fort Worth Center
07:11PM 33.1761 -92.6733 56° Northeast 438 504 31,000  Level Fort Worth Center
07:12PM 33.2444 -92.5481 57° Northeast 443 510 31,000  Level Fort Worth Center
07:14PM 33.3708 -92.3075 58° Northeast 415 478 31,000  Level Memphis Center
07:15PM 33.4394 -92.1844 56° Northeast 425 489 31,000  Level Memphis Center
07:16PM 33.5036 -92.0589 58° Northeast 431 496 31,000  Level Memphis Center
07:17PM 33.5347 -91.9147 75° East 429 494 31,000  Level Memphis Center
07:18PM 33.5408 -91.7628 87° East 435 501 31,000  Level Memphis Center
07:19PM 33.5444 -91.6108 88° East 445 512 31,000  Level Memphis Center
07:20PM 33.5500 -91.4589 87° East 451 519 31,000  Level Memphis Center
07:21PM 33.5556 -91.3069 87° East 451 519 31,000  Level Memphis Center
07:22PM 33.5608 -91.1525 88° East 456 525 31,000  Level Memphis Center
07:23PM 33.5681 -90.9981 87° East 456 525 31,000  Level Memphis Center
07:24PM 33.5728 -90.8408 88° East 461 531 31,000  Level Memphis Center
07:25PM 33.5775 -90.6889 88° East 461 531 31,000  Level Memphis Center
07:26PM 33.5839 -90.5367 87° East 461 531 31,000  Level Memphis Center
07:27PM 33.5883 -90.3822 88° East 461 531 31,000  Level Memphis Center
07:28PM 33.5925 -90.2275 88° East 461 531 31,000  Level Memphis Center
07:29PM 33.5983 -90.0706 87° East 461 531 31,000  Level Memphis Center
07:30PM 33.6000 -89.9158 89° East 461 531 31,000  Level Memphis Center
07:31PM 33.6056 -89.7586 88° East 461 531 31,000  Level Memphis Center
07:32PM 33.6089 -89.6014 88° East 461 531 31,000  Level Memphis Center
07:33PM 33.6142 -89.4467 88° East 461 531 31,000  Level Memphis Center
07:34PM 33.6172 -89.2919 89° East 461 531 31,000  Level Memphis Center
07:35PM 33.6219 -89.1372 88° East 461 531 31,000  Level Memphis Center
07:36PM 33.6225 -88.9803 90° East 461 531 31,000  Level Memphis Center
07:37PM 33.6247 -88.8156 89° East 461 531 31,000  Level Memphis Center
07:38PM 33.6267 -88.6608 89° East 461 531 31,000  Level Memphis Center
07:39PM 33.6289 -88.5111 89° East 461 531 31,000  Level Memphis Center
07:40PM 33.6306 -88.3539 89° East 456 525 31,000  Level Memphis Center
07:42PM 33.6358 -88.0883 89° East 480 552 31,000  Level Atlanta Center
07:43PM 33.6367 -87.9361 90° East 462 532 31,000  Level Atlanta Center
07:44PM 33.6392 -87.7839 89° East 457 526 31,000  Level Atlanta Center
07:45PM 33.6375 -87.6317 91° East 457 526 31,000  Level Atlanta Center
07:46PM 33.6397 -87.4822 89° East 457 526 31,000  Level Atlanta Center
07:47PM 33.6419 -87.3275 89° East 457 526 31,000  Level Atlanta Center
07:48PM 33.6417 -87.1753 90° East 457 526 31,000  Level Atlanta Center
07:49PM 33.6433 -87.0256 89° East 457 526 31,000  Level Atlanta Center
07:50PM 33.6447 -86.8736 89° East 457 526 31,000  Level Atlanta Center
07:51PM 33.6461 -86.7214 89° East 457 526 31,000  Level Atlanta Center
07:52PM 33.6453 -86.5667 90° East 457 526 31,000  Level Atlanta Center
07:53PM 33.6442 -86.4119 90° East 457 526 31,000  Level Atlanta Center
07:54PM 33.6447 -86.2622 90° East 457 526 31,000  Level Atlanta Center
07:55PM 33.6453 -86.1075 90° East 457 526 31,000  Level Atlanta Center
07:56PM 33.6436 -85.9578 91° East 457 526 31,000  Level Atlanta Center
07:57PM 33.6458 -85.8056 89° East 457 526 31,000  Level Atlanta Center
07:58PM 33.6458 -85.6558 90° East 451 519 31,000  Level Atlanta Center
07:59PM 33.6433 -85.5236 91° East 451 519 31,000  Level Atlanta Center
08:00PM 33.6408 -85.3711 91° East 451 519 31,000  Level Atlanta Center
08:01PM 33.6403 -85.2189 90° East 456 525 31,000  Level Atlanta Center
08:02PM 33.6375 -85.0692 91° East 456 525 31,000  Level Atlanta Center
08:03PM 33.6367 -84.9194 90° East 456 525 31,000  Level Atlanta Center
08:04PM 33.6336 -84.7625 91° East 456 525 31,000  Level Atlanta Center
08:05PM 33.6322 -84.6153 91° East 456 525 31,000  Level Atlanta Center
08:06PM 33.6225 -84.4628 94° East 456 525 31,000  Level Atlanta Center
08:07PM 33.6603 -84.3183 73° East 456 525 31,000  Level Atlanta Center
08:08PM 33.7022 -84.1686 71° East 446 513 31,000  Level Atlanta Center
08:09PM 33.7419 -84.0264 71° East 454 522 31,000  Level Atlanta Center
08:10PM 33.7817 -83.8789 72° East 459 528 31,000  Level Atlanta Center
08:11PM 33.8231 -83.7364 71° East 459 528 31,000  Level Atlanta Center
08:12PM 33.8644 -83.5936 71° East 454 522 31,000  Level Atlanta Center
08:13PM 33.9056 -83.4356 73° East 454 522 31,000  Level Atlanta Center
08:14PM 33.9464 -83.2925 71° East 449 517 31,000 -300 Level Atlanta Center
08:15PM 33.9850 -83.1469 72° East 449 517 30,500 -540 Descending Atlanta Center
08:16PM 34.0444 -83.0108 62° Northeast 449 517 30,000 -300 Descending Atlanta Center
08:17PM 34.1061 -82.8797 60° Northeast 449 517 29,900 -600 Descending Atlanta Center
08:18PM 34.1694 -82.7458 60° Northeast 454 522 28,900 -1,020 Descending Atlanta Center
08:19PM 34.2325 -82.6117 60° Northeast 459 528 27,900 -900 Descending Atlanta Center
08:20PM 34.2939 -82.4925 58° Northeast 459 528 27,100 -900 Descending Atlanta Center
08:21PM 34.3567 -82.3581 60° Northeast 454 522 26,100 -1,200 Descending Atlanta Center
08:22PM 34.4175 -82.2258 61° Northeast 448 516 24,800 -1,440 Descending Atlanta Center
08:23PM 34.4761 -82.0986 61° Northeast 443 510 23,300 -1,980 Descending Atlanta Center
08:24PM 34.5344 -81.9711 61° Northeast 432 497 20,900 -2,400 Descending Atlanta Center
08:25PM 34.5908 -81.8536 60° Northeast 422 486 18,500 -2,580 Descending Atlanta Center
08:26PM 34.6289 -81.7719 60° Northeast 397 457 16,900 -2,760 Descending Atlanta Center
08:26PM 34.6650 -81.6900 62° Northeast 393 452 15,000 -2,400 Descending Atlanta Center
08:27PM 34.6969 -81.6211 61° Northeast 392 451 13,500 -1,800 Descending Atlanta Center
08:28PM 34.7556 -81.5131 57° Northeast 381 438 12,000 -1,020 Descending Atlanta Center
08:29PM 34.7981 -81.4586 46° Northeast 366 421 12,000 -720 Level Atlanta Center
08:30PM 34.8692 -81.3653 47° Northeast 370 426 10,900 -1,020 Descending Atlanta Center
08:31PM 34.9464 -81.2717 45° Northeast 365 420 10,000 -420 Descending Atlanta Center
08:32PM 35.0356 -81.1544 47° Northeast 357 411 10,000  Level Atlanta Center
08:33PM 35.0903 -81.0892 44° Northeast 360 414 10,000 -360 Level Atlanta Center
08:34PM 35.1711 -81.0661 13° North 286 329 9,400 -1,080 Descending Atlanta Center
08:35PM 35.2358 -81.0739 354° North 255 293 8,100 -1,980 Descending Atlanta Center
08:36PM 35.3217 -81.0783 358° North 250 288 5,500 -1,680 Descending Atlanta Center
08:38PM 35.3592 -80.9906 62° Northeast 196 226 3,100 -1,140 Descending Atlanta Center
08:39PM 35.3150 -80.9794 168° South 137 158 2,400 -660 Descending Atlanta Center
08:40PM 35.2817 -80.9756 175° South 117 135 1,800 -600 Descending Atlanta Center